Time;durP1;ratioP1;P1;durP2;ratioP2;P2;SDS_P1;SDS_P2;PMS_P1;PMS_P2;Temp;Humidity;BMP_temperature;BMP_pressure;BME280_temperature;BME280_humidity;BME280_pressure;Samples;Min_cycle;Max_cycle;Signal;HPM_P1;HPM_P2
2022/01/08 00:00:58;;;;;;;15.35;8.57;;;19.80;52.50;;;;;;5094526;28;20029;-80
2022/01/08 00:03:24;;;;;;;12.32;8.60;;;19.80;52.50;;;;;;5095498;28;20043;-80
2022/01/08 00:05:50;;;;;;;12.77;8.25;;;19.80;52.40;;;;;;5096998;28;20112;-80
2022/01/08 00:08:16;;;;;;;16.30;8.60;;;19.80;52.40;;;;;;5096105;28;20041;-80
2022/01/08 00:10:43;;;;;;;16.33;8.43;;;19.70;52.30;;;;;;5084435;28;20052;-80
2022/01/08 00:13:09;;;;;;;14.82;8.02;;;19.70;52.30;;;;;;5092725;28;20039;-81
2022/01/08 00:15:36;;;;;;;11.40;8.10;;;19.70;52.20;;;;;;5082241;28;20047;-80
2022/01/08 00:18:02;;;;;;;11.77;7.55;;;19.80;52.10;;;;;;5096073;28;20037;-80
2022/01/08 00:20:28;;;;;;;15.15;8.30;;;19.80;52.00;;;;;;5092072;28;20044;-80
2022/01/08 00:22:56;;;;;;;15.10;7.55;;;19.90;51.90;;;;;;5095915;28;20020;-80
2022/01/08 00:25:25;;;;;;;9.30;6.22;;;19.90;51.70;;;;;;5105011;28;20051;-79
2022/01/08 00:27:51;;;;;;;10.13;6.70;;;20.00;51.60;;;;;;5077595;28;20037;-81
2022/01/08 00:30:17;;;;;;;10.82;6.78;;;19.90;51.50;;;;;;5093499;28;20051;-80
2022/01/08 00:32:45;;;;;;;11.85;8.30;;;20.00;51.40;;;;;;5095813;28;20108;-80
2022/01/08 00:35:12;;;;;;;9.68;7.07;;;19.90;51.40;;;;;;5095114;28;20028;-81
2022/01/08 00:37:38;;;;;;;11.25;6.95;;;19.90;51.40;;;;;;5095342;28;20100;-80
2022/01/08 00:40:09;;;;;;;9.15;6.15;;;19.90;51.40;;;;;;5077298;28;20033;-81
2022/01/08 00:42:37;;;;;;;9.98;7.00;;;19.90;51.40;;;;;;5076697;28;20048;-82
2022/01/08 00:45:05;;;;;;;8.60;7.00;;;19.90;51.40;;;;;;5089615;28;20032;-80
2022/01/08 00:47:32;;;;;;;11.32;6.78;;;19.80;51.30;;;;;;5041772;28;20033;-80
2022/01/08 00:49:59;;;;;;;9.98;6.75;;;19.90;51.50;;;;;;5076772;28;20021;-81
2022/01/08 00:52:25;;;;;;;14.18;7.05;;;19.80;51.60;;;;;;5095901;28;20044;-80
2022/01/08 00:54:54;;;;;;;16.20;8.50;;;19.80;51.70;;;;;;5078597;28;20040;-81
2022/01/08 00:57:20;;;;;;;10.88;7.13;;;19.70;51.70;;;;;;5078402;28;20123;-80
2022/01/08 00:59:46;;;;;;;11.55;8.07;;;19.80;51.70;;;;;;5078656;28;20033;-80
2022/01/08 01:02:12;;;;;;;10.32;7.55;;;19.70;51.80;;;;;;5058272;28;20044;-80
2022/01/08 01:04:38;;;;;;;11.60;7.43;;;19.80;51.80;;;;;;5076144;28;20032;-80
2022/01/08 01:07:04;;;;;;;11.38;6.45;;;19.70;51.80;;;;;;5093891;28;20051;-80
2022/01/08 01:09:30;;;;;;;9.88;6.40;;;19.70;51.60;;;;;;5095873;28;20039;-80
2022/01/08 01:12:00;;;;;;;10.65;7.28;;;19.70;51.40;;;;;;5093011;28;20067;-80
2022/01/08 01:14:26;;;;;;;12.05;8.10;;;19.80;51.30;;;;;;5080042;28;20783;-81
2022/01/08 01:16:53;;;;;;;11.15;7.72;;;19.90;51.20;;;;;;5072792;28;20067;-81
2022/01/08 01:19:20;;;;;;;12.48;6.80;;;19.70;51.10;;;;;;5094978;28;20036;-80
2022/01/08 01:21:46;;;;;;;12.45;7.28;;;19.70;51.00;;;;;;5095658;28;20484;-80
2022/01/08 01:24:18;;;;;;;7.15;6.20;;;19.80;50.90;;;;;;5095561;28;20044;-80
2022/01/08 01:27:12;;;;;;;8.55;6.00;;;19.80;50.80;;;;;;5095533;28;20040;-80
2022/01/08 01:43:36;;;;;;;8.25;5.72;;;19.90;51.00;;;;;;5099179;28;20044;-81
2022/01/08 01:48:47;;;;;;;10.52;6.53;;;19.70;51.10;;;;;;5095737;28;20067;-80
2022/01/08 01:51:22;;;;;;;8.50;5.90;;;19.60;51.00;;;;;;5081697;28;20044;-80
2022/01/08 01:53:50;;;;;;;7.55;5.57;;;19.60;51.10;;;;;;5099605;28;20096;-79
2022/01/08 01:56:20;;;;;;;8.65;5.80;;;19.60;51.10;;;;;;5082103;28;20044;-81
2022/01/08 01:58:46;;;;;;;9.65;5.88;;;19.70;51.20;;;;;;5081311;28;20032;-80
2022/01/08 02:01:13;;;;;;;9.57;5.10;;;19.70;51.00;;;;;;5081627;28;20041;-81
2022/01/08 02:03:41;;;;;;;8.65;5.70;;;19.60;50.60;;;;;;5098690;28;20166;-79
2022/01/08 02:06:08;;;;;;;8.27;6.18;;;19.70;50.60;;;;;;5098320;28;20032;-80
2022/01/08 02:08:36;;;;;;;12.15;5.10;;;19.80;50.50;;;;;;5115203;28;20171;-80
2022/01/08 02:11:02;;;;;;;8.70;5.57;;;19.70;50.30;;;;;;5098963;28;20053;-80
2022/01/08 02:13:29;;;;;;;7.57;5.50;;;19.60;50.10;;;;;;5114620;28;20032;-80
2022/01/08 02:15:57;;;;;;;6.68;4.85;;;19.80;50.00;;;;;;5098815;28;20058;-81
2022/01/08 02:18:27;;;;;;;6.57;4.85;;;19.80;49.90;;;;;;5081252;28;20067;-80
2022/01/08 02:20:58;;;;;;;8.88;5.05;;;19.80;49.90;;;;;;5063219;28;20033;-80
2022/01/08 02:23:26;;;;;;;8.57;5.22;;;19.90;49.80;;;;;;5098504;28;20040;-80
2022/01/08 02:26:05;;;;;;;9.68;6.03;;;19.90;49.80;;;;;;5081484;28;20059;-80
2022/01/08 02:28:31;;;;;;;7.97;5.65;;;19.90;49.80;;;;;;5098089;28;20072;-80
2022/01/08 02:30:57;;;;;;;9.85;4.88;;;19.70;49.90;;;;;;5050703;28;20040;-80
2022/01/08 02:33:25;;;;;;;7.72;4.65;;;19.80;49.90;;;;;;5094268;28;20032;-80
2022/01/08 02:35:52;;;;;;;8.77;5.57;;;19.70;50.00;;;;;;5097029;28;20036;-80
2022/01/08 02:38:18;;;;;;;8.63;5.20;;;19.80;50.10;;;;;;5097476;28;20040;-80
2022/01/08 02:41:00;;;;;;;6.53;4.80;;;19.70;50.20;;;;;;5080133;28;20101;-80
2022/01/08 02:43:28;;;;;;;5.82;4.80;;;19.80;50.30;;;;;;5091727;28;20048;-80
2022/01/08 02:45:54;;;;;;;5.90;4.60;;;19.70;50.40;;;;;;5097434;28;20040;-80
2022/01/08 02:48:20;;;;;;;6.28;4.25;;;19.70;50.50;;;;;;5098500;28;20120;-80
2022/01/08 02:50:47;;;;;;;9.82;4.53;;;19.70;50.50;;;;;;5097761;28;20033;-81
2022/01/08 02:53:15;;;;;;;7.65;4.53;;;19.60;50.50;;;;;;5098344;28;20040;-79
2022/01/08 02:55:41;;;;;;;6.18;4.22;;;19.60;50.40;;;;;;5097281;28;20041;-80
2022/01/08 02:58:07;;;;;;;5.25;4.38;;;19.70;50.10;;;;;;5080535;28;20066;-80
2022/01/08 03:00:33;;;;;;;8.60;4.90;;;19.70;50.00;;;;;;5096832;28;20036;-80
2022/01/08 03:03:00;;;;;;;6.53;4.45;;;19.70;49.80;;;;;;5096898;28;20758;-81
2022/01/08 03:05:27;;;;;;;7.25;4.35;;;19.70;49.70;;;;;;5097641;28;20036;-79
2022/01/08 03:07:54;;;;;;;4.03;3.45;;;19.80;50.40;;;;;;5096797;28;20109;-79
2022/01/08 03:10:20;;;;;;;6.05;3.80;;;19.80;51.40;;;;;;5096219;28;20040;-79
2022/01/08 03:12:46;;;;;;;6.95;4.05;;;19.90;53.10;;;;;;5068389;28;20050;-79
2022/01/08 03:15:16;;;;;;;5.10;4.13;;;19.90;53.80;;;;;;5095673;28;20036;-79
2022/01/08 03:17:43;;;;;;;8.30;4.75;;;19.80;54.50;;;;;;5076606;28;20059;-79
2022/01/08 03:20:13;;;;;;;6.88;4.18;;;19.90;54.90;;;;;;5077386;28;20029;-79
2022/01/08 03:22:45;;;;;;;5.05;4.05;;;20.00;54.80;;;;;;5096644;28;20036;-78
2022/01/08 03:25:15;;;;;;;5.40;3.53;;;19.90;55.00;;;;;;5096603;28;20096;-79
2022/01/08 03:27:42;;;;;;;4.85;3.75;;;20.00;55.00;;;;;;5096968;28;20059;-78
2022/01/08 03:30:11;;;;;;;9.05;4.38;;;19.80;54.90;;;;;;5097077;28;20071;-79
2022/01/08 03:32:37;;;;;;;9.43;3.63;;;20.00;55.50;;;;;;5097451;28;20104;-79
2022/01/08 03:35:04;;;;;;;5.43;3.75;;;19.90;56.10;;;;;;5097363;28;20028;-78
2022/01/08 03:37:30;;;;;;;6.10;3.88;;;20.00;56.60;;;;;;5097313;28;20094;-79
2022/01/08 03:39:56;;;;;;;4.90;3.42;;;20.00;56.80;;;;;;5097358;28;20036;-79
2022/01/08 03:42:22;;;;;;;7.20;3.70;;;19.80;57.20;;;;;;5095894;28;20041;-79
2022/01/08 03:44:49;;;;;;;4.30;3.28;;;19.80;57.50;;;;;;5096303;28;20089;-79
2022/01/08 03:47:28;;;;;;;4.95;3.13;;;19.70;58.10;;;;;;5097048;28;20066;-79
2022/01/08 03:49:56;;;;;;;7.90;2.90;;;19.80;58.20;;;;;;5096538;28;20074;-79
2022/01/08 03:52:22;;;;;;;3.25;2.78;;;19.80;58.70;;;;;;5095952;28;20055;-79
2022/01/08 03:54:49;;;;;;;8.18;2.47;;;19.80;58.70;;;;;;5096433;28;20032;-79
2022/01/08 03:57:15;;;;;;;6.82;3.20;;;19.90;59.00;;;;;;5096806;28;20032;-79
2022/01/08 03:59:41;;;;;;;3.65;2.75;;;19.80;58.70;;;;;;5096730;28;20040;-79
2022/01/08 04:02:07;;;;;;;5.07;2.90;;;19.90;59.10;;;;;;5087864;28;20036;-79
2022/01/08 04:04:33;;;;;;;3.00;2.58;;;19.90;58.40;;;;;;5096687;28;20384;-79
2022/01/08 04:07:00;;;;;;;4.10;2.45;;;19.90;58.50;;;;;;5096667;28;20059;-79
2022/01/08 04:09:26;;;;;;;4.47;3.17;;;19.90;58.70;;;;;;5096219;28;20094;-79
2022/01/08 04:11:53;;;;;;;4.85;3.40;;;19.80;58.50;;;;;;5096869;28;20055;-79
2022/01/08 04:14:20;;;;;;;5.53;3.50;;;19.80;59.00;;;;;;5085246;28;20101;-78
2022/01/08 04:16:50;;;;;;;4.78;3.10;;;19.80;58.90;;;;;;5082968;28;20028;-79
2022/01/08 04:19:16;;;;;;;7.10;3.65;;;19.80;58.90;;;;;;5096299;28;20041;-79
2022/01/08 04:21:59;;;;;;;5.28;3.40;;;19.90;58.60;;;;;;5093294;28;20044;-79
2022/01/08 04:24:27;;;;;;;5.75;3.78;;;19.80;58.00;;;;;;5095485;28;20092;-82
2022/01/08 04:26:53;;;;;;;5.65;3.42;;;19.80;57.90;;;;;;5096398;28;20036;-79
2022/01/08 04:29:19;;;;;;;5.13;3.42;;;19.90;57.80;;;;;;5078906;28;20036;-79
2022/01/08 04:31:45;;;;;;;5.63;3.85;;;19.90;57.40;;;;;;5095877;28;20048;-79
2022/01/08 04:34:12;;;;;;;5.40;3.60;;;20.00;57.60;;;;;;5095630;28;20037;-79
2022/01/08 04:36:38;;;;;;;5.03;3.20;;;19.90;57.50;;;;;;5096317;28;20020;-79
2022/01/08 04:39:05;;;;;;;8.20;3.65;;;20.00;57.30;;;;;;5095967;28;20036;-79
2022/01/08 04:41:31;;;;;;;7.32;3.67;;;20.00;57.30;;;;;;5096265;28;20044;-79
2022/01/08 04:43:57;;;;;;;5.32;3.88;;;19.90;57.40;;;;;;5095564;28;20040;-79
2022/01/08 04:46:23;;;;;;;7.63;3.20;;;20.10;57.30;;;;;;5095983;28;20055;-79
2022/01/08 04:48:49;;;;;;;4.45;3.33;;;20.00;57.30;;;;;;5096541;28;20062;-79
2022/01/08 04:51:15;;;;;;;4.72;3.22;;;20.00;57.20;;;;;;5095401;28;20043;-79
2022/01/08 04:53:42;;;;;;;5.72;4.03;;;20.00;57.00;;;;;;5096211;28;20040;-79
2022/01/08 04:56:08;;;;;;;4.60;3.58;;;19.90;57.20;;;;;;5096165;28;20032;-79
2022/01/08 04:58:34;;;;;;;4.30;3.67;;;20.10;57.20;;;;;;5095750;28;20029;-79
2022/01/08 05:01:01;;;;;;;5.68;3.85;;;20.10;57.00;;;;;;5095378;28;20044;-79
2022/01/08 05:03:27;;;;;;;4.28;2.70;;;20.20;56.80;;;;;;5095940;28;20048;-79
2022/01/08 05:05:53;;;;;;;4.20;3.25;;;20.20;56.80;;;;;;5099951;28;20044;-79
2022/01/08 05:08:19;;;;;;;5.25;3.60;;;20.30;56.50;;;;;;5099745;28;20094;-79
2022/01/08 05:10:45;;;;;;;4.22;3.15;;;20.30;56.10;;;;;;5099506;28;20041;-79
2022/01/08 05:13:13;;;;;;;4.63;3.80;;;20.30;56.20;;;;;;5099712;28;20063;-78
2022/01/08 05:15:39;;;;;;;4.07;2.90;;;20.50;55.70;;;;;;5098524;28;20032;-79
2022/01/08 05:18:09;;;;;;;4.20;3.30;;;20.40;55.70;;;;;;5099457;28;20041;-79
2022/01/08 05:20:37;;;;;;;5.40;3.33;;;20.50;55.90;;;;;;5086816;28;20032;-79
2022/01/08 05:23:04;;;;;;;5.20;3.60;;;20.50;55.60;;;;;;5099335;28;20064;-79
2022/01/08 05:25:31;;;;;;;5.13;3.67;;;20.50;55.70;;;;;;5082994;28;20051;-79
2022/01/08 05:28:00;;;;;;;6.80;4.13;;;20.30;55.90;;;;;;5099215;28;20412;-79
2022/01/08 05:30:28;;;;;;;5.10;3.97;;;20.30;56.10;;;;;;5098630;28;20070;-79
2022/01/08 05:32:55;;;;;;;7.68;3.85;;;20.30;56.10;;;;;;5098669;28;20037;-79
2022/01/08 05:35:23;;;;;;;6.20;3.45;;;20.30;56.20;;;;;;5081612;28;20205;-79
2022/01/08 05:37:50;;;;;;;7.25;3.20;;;20.20;56.50;;;;;;5099314;28;20074;-79
2022/01/08 05:40:16;;;;;;;7.18;2.92;;;20.30;56.20;;;;;;5098624;28;20109;-79
2022/01/08 05:42:43;;;;;;;4.93;4.07;;;20.20;56.30;;;;;;5081256;28;20028;-79
2022/01/08 05:45:10;;;;;;;6.07;3.83;;;20.20;56.10;;;;;;5097860;28;20052;-79
2022/01/08 05:47:37;;;;;;;4.57;3.90;;;20.10;56.40;;;;;;5098554;28;20036;-79
2022/01/08 05:50:04;;;;;;;7.25;4.45;;;20.10;56.60;;;;;;5098742;28;20063;-79
2022/01/08 05:52:31;;;;;;;5.63;3.88;;;20.10;56.90;;;;;;5097954;28;20050;-79
2022/01/08 05:54:58;;;;;;;4.93;3.47;;;20.10;56.80;;;;;;5098173;28;20055;-78
2022/01/08 05:57:24;;;;;;;6.65;3.80;;;20.10;56.80;;;;;;5098218;28;20036;-79
2022/01/08 05:59:50;;;;;;;6.38;4.20;;;20.10;56.80;;;;;;5098355;28;20036;-79
2022/01/08 06:02:17;;;;;;;8.00;3.85;;;20.10;56.50;;;;;;5101217;28;20075;-79
2022/01/08 06:04:44;;;;;;;6.35;3.90;;;20.20;56.60;;;;;;5098464;28;20044;-79
2022/01/08 06:07:13;;;;;;;8.98;4.38;;;20.20;56.60;;;;;;5098609;28;20048;-79
2022/01/08 06:09:39;;;;;;;7.50;4.47;;;20.30;56.70;;;;;;5097299;28;20111;-77
2022/01/08 06:12:05;;;;;;;7.90;4.85;;;20.20;56.70;;;;;;5097665;28;20036;-80
2022/01/08 06:14:32;;;;;;;3.83;2.85;;;20.20;56.40;;;;;;5096804;28;20075;-78
2022/01/08 06:17:01;;;;;;;3.38;2.20;;;20.10;45.70;;;;;;5097600;28;20036;-81
2022/01/08 06:19:27;;;;;;;3.25;2.65;;;20.20;41.60;;;;;;5097620;28;20040;-75
2022/01/08 06:21:53;;;;;;;9.77;2.65;;;20.30;40.60;;;;;;5097739;28;20096;-76
2022/01/08 06:24:20;;;;;;;3.95;2.97;;;20.30;39.50;;;;;;5097857;28;20066;-78
2022/01/08 06:26:46;;;;;;;2.65;2.35;;;20.20;39.50;;;;;;5096739;28;20040;-78
2022/01/08 06:29:12;;;;;;;4.03;2.65;;;20.30;38.80;;;;;;5063434;28;20044;-77
2022/01/08 06:31:38;;;;;;;3.85;2.50;;;20.30;38.50;;;;;;5096632;28;20048;-77
2022/01/08 06:34:05;;;;;;;1.80;1.70;;;20.50;37.90;;;;;;5096348;28;20153;-77
2022/01/08 06:36:32;;;;;;;2.83;2.05;;;20.60;37.60;;;;;;5093984;28;20147;-76
2022/01/08 06:38:58;;;;;;;3.67;2.45;;;20.60;37.70;;;;;;5095562;28;20060;-75
2022/01/08 06:41:24;;;;;;;6.38;3.67;;;20.70;38.00;;;;;;5113017;28;20040;-76
2022/01/08 06:43:51;;;;;;;5.68;4.15;;;20.70;37.40;;;;;;5079134;28;20843;-75
2022/01/08 06:46:17;;;;;;;5.95;4.18;;;20.80;36.60;;;;;;5096690;28;20049;-78
2022/01/08 06:48:43;;;;;;;21.67;11.88;;;20.80;37.10;;;;;;5096715;28;20049;-75
2022/01/08 06:51:09;;;;;;;21.27;12.65;;;20.90;38.60;;;;;;5095995;28;20067;-76
2022/01/08 06:53:35;;;;;;;10.52;6.60;;;21.00;37.20;;;;;;5096969;28;20028;-76
2022/01/08 06:56:02;;;;;;;6.78;4.35;;;21.00;38.20;;;;;;5096229;28;20062;-76
2022/01/08 06:58:28;;;;;;;6.20;4.22;;;21.00;47.00;;;;;;5079991;28;20048;-76
2022/01/08 07:00:54;;;;;;;5.25;3.97;;;21.10;54.20;;;;;;5099849;28;20049;-76
2022/01/08 07:03:21;;;;;;;7.40;3.97;;;21.10;54.70;;;;;;5096901;28;20040;-77
2022/01/08 07:05:47;;;;;;;6.55;4.63;;;21.10;59.50;;;;;;5097448;28;20036;-75
2022/01/08 07:08:14;;;;;;;6.30;4.32;;;21.10;59.80;;;;;;5095842;28;20719;-75
2022/01/08 07:10:41;;;;;;;8.13;3.85;;;21.10;59.40;;;;;;5078666;28;20113;-76
2022/01/08 07:13:08;;;;;;;7.00;4.45;;;20.90;59.40;;;;;;5096812;28;20040;-75
2022/01/08 07:15:34;;;;;;;8.80;4.40;;;20.90;59.30;;;;;;5096830;28;20043;-75
2022/01/08 07:18:00;;;;;;;6.30;2.70;;;20.90;59.60;;;;;;5096363;28;20036;-75
2022/01/08 07:20:27;;;;;;;7.88;3.83;;;20.90;60.30;;;;;;5087361;28;20044;-75
2022/01/08 07:22:53;;;;;;;7.40;3.45;;;21.00;58.60;;;;;;5096326;28;20043;-75
2022/01/08 07:25:19;;;;;;;5.13;2.75;;;21.10;57.10;;;;;;5095992;28;20043;-74
2022/01/08 07:27:45;;;;;;;7.85;3.40;;;21.30;55.80;;;;;;5108467;28;20057;-74
2022/01/08 07:30:12;;;;;;;7.78;3.83;;;21.30;54.20;;;;;;5099216;28;20047;-74
2022/01/08 07:32:46;;;;;;;6.57;3.78;;;21.40;52.70;;;;;;5103607;28;20051;-74
2022/01/08 07:35:14;;;;;;;3.35;2.35;;;21.40;51.20;;;;;;5096473;28;20048;-74
2022/01/08 07:37:42;;;;;;;5.65;3.58;;;21.50;50.30;;;;;;5096698;28;20060;-75
2022/01/08 07:40:10;;;;;;;4.57;3.13;;;21.50;50.10;;;;;;5083733;28;20036;-75
2022/01/08 07:42:36;;;;;;;5.85;3.88;;;21.50;49.30;;;;;;5095587;28;20040;-75
2022/01/08 07:45:05;;;;;;;10.57;4.13;;;21.60;48.50;;;;;;5095464;28;20074;-75
2022/01/08 07:47:31;;;;;;;10.20;4.13;;;21.70;47.90;;;;;;5095165;28;20036;-75
2022/01/08 07:49:57;;;;;;;5.28;3.85;;;21.80;47.40;;;;;;5095984;28;20055;-76
2022/01/08 07:52:23;;;;;;;6.88;4.28;;;21.70;47.10;;;;;;5096328;28;20047;-77
2022/01/08 07:54:50;;;;;;;8.98;4.28;;;21.70;46.50;;;;;;5095851;28;20042;-76
2022/01/08 07:57:16;;;;;;;5.97;3.95;;;21.50;47.00;;;;;;5096115;28;20032;-77
2022/01/08 07:59:42;;;;;;;8.98;4.40;;;21.40;48.20;;;;;;5101188;28;20059;-76
2022/01/08 08:02:10;;;;;;;5.50;4.15;;;21.40;48.60;;;;;;5098273;28;20096;-75
2022/01/08 08:04:38;;;;;;;4.80;3.35;;;21.20;49.20;;;;;;5094754;28;20068;-73
2022/01/08 08:07:04;;;;;;;5.95;3.85;;;21.20;48.90;;;;;;5113093;28;20047;-74
2022/01/08 08:09:30;;;;;;;6.22;3.47;;;21.10;50.00;;;;;;5094894;28;20036;-74
2022/01/08 08:11:56;;;;;;;6.10;3.03;;;21.10;50.30;;;;;;5094509;28;20035;-74
2022/01/08 08:14:23;;;;;;;4.35;3.33;;;21.00;50.90;;;;;;5100696;28;20028;-74
2022/01/08 08:16:49;;;;;;;5.93;3.42;;;20.90;52.30;;;;;;5095407;28;20036;-75
2022/01/08 08:19:16;;;;;;;5.50;2.88;;;20.90;52.10;;;;;;5099154;28;20024;-75
2022/01/08 08:21:42;;;;;;;5.43;3.15;;;20.90;52.20;;;;;;5094783;28;20090;-75
2022/01/08 08:24:09;;;;;;;3.88;2.70;;;21.00;51.90;;;;;;5094281;28;20048;-74
2022/01/08 08:26:36;;;;;;;2.95;2.55;;;20.80;52.20;;;;;;5094358;28;20047;-75
2022/01/08 08:29:03;;;;;;;4.97;3.35;;;20.90;52.50;;;;;;5093565;28;20043;-75
2022/01/08 08:31:29;;;;;;;3.85;3.10;;;20.80;52.50;;;;;;5094524;28;20053;-75
2022/01/08 08:34:01;;;;;;;3.55;3.03;;;20.80;52.20;;;;;;5093788;28;20067;-75
2022/01/08 08:36:27;;;;;;;4.15;3.00;;;20.90;52.20;;;;;;5095058;28;20051;-75
2022/01/08 08:38:53;;;;;;;6.55;4.03;;;20.70;52.50;;;;;;5094753;28;20055;-75
2022/01/08 08:41:20;;;;;;;3.58;3.05;;;20.80;53.00;;;;;;5094465;28;20048;-75
2022/01/08 08:43:46;;;;;;;4.15;3.08;;;20.80;52.80;;;;;;5094777;28;20096;-75
2022/01/08 08:46:12;;;;;;;5.28;3.28;;;20.80;53.00;;;;;;5095738;28;20073;-75
2022/01/08 08:48:38;;;;;;;9.75;3.08;;;20.60;53.40;;;;;;5078299;28;20056;-75
2022/01/08 08:51:04;;;;;;;6.15;3.75;;;20.70;53.30;;;;;;5095437;28;20100;-75
2022/01/08 08:53:31;;;;;;;5.50;3.13;;;20.60;53.60;;;;;;5095358;28;20036;-75
2022/01/08 08:55:57;;;;;;;5.75;3.33;;;20.60;53.80;;;;;;5095592;28;20036;-75
2022/01/08 08:58:23;;;;;;;5.65;3.88;;;20.70;53.50;;;;;;5095461;28;20037;-75
2022/01/08 09:00:49;;;;;;;6.15;3.95;;;20.70;53.00;;;;;;5095280;28;20039;-75
2022/01/08 09:03:17;;;;;;;10.90;4.43;;;20.60;53.70;;;;;;5095302;28;20404;-75
2022/01/08 09:05:43;;;;;;;6.38;3.75;;;20.50;53.60;;;;;;5094009;28;20040;-75
2022/01/08 09:08:09;;;;;;;7.03;3.92;;;20.40;53.70;;;;;;5072858;28;20045;-74
2022/01/08 09:10:35;;;;;;;7.25;4.40;;;20.40;53.80;;;;;;5092134;28;20032;-74
2022/01/08 09:13:02;;;;;;;5.68;3.72;;;20.50;54.00;;;;;;5086823;28;20036;-76
2022/01/08 09:15:28;;;;;;;7.72;4.20;;;20.40;53.60;;;;;;5087861;28;20041;-74
2022/01/08 09:17:57;;;;;;;6.50;4.18;;;20.60;53.10;;;;;;5083821;28;20036;-75
2022/01/08 09:20:25;;;;;;;7.15;3.92;;;20.50;52.50;;;;;;5095121;28;20036;-75
2022/01/08 09:22:51;;;;;;;9.30;3.78;;;20.40;53.10;;;;;;5093733;28;20052;-74
2022/01/08 09:25:17;;;;;;;5.05;3.60;;;20.50;53.50;;;;;;5093182;28;20082;-74
2022/01/08 09:27:43;;;;;;;4.95;2.53;;;20.50;52.80;;;;;;5093438;28;20100;-73
2022/01/08 09:30:10;;;;;;;0.63;0.55;;;20.50;50.00;;;;;;5092913;28;20044;-72
2022/01/08 09:32:37;;;;;;;0.40;0.40;;;20.70;53.60;;;;;;5093699;28;20037;-72
2022/01/08 09:35:05;;;;;;;1.17;1.10;;;20.90;53.20;;;;;;5081438;28;20033;-74
2022/01/08 09:37:33;;;;;;;1.77;1.05;;;21.20;53.70;;;;;;5089304;28;20048;-74
2022/01/08 09:39:59;;;;;;;6.35;1.77;;;21.50;55.00;;;;;;5094296;28;20033;-73
2022/01/08 09:42:25;;;;;;;1.60;1.48;;;21.80;53.60;;;;;;5093919;28;20075;-73
2022/01/08 09:44:53;;;;;;;2.30;2.10;;;21.90;50.60;;;;;;5093225;28;20070;-73
2022/01/08 09:47:19;;;;;;;3.45;2.85;;;21.80;38.80;;;;;;5094672;28;20075;-73
2022/01/08 09:49:45;;;;;;;4.28;2.30;;;21.90;36.20;;;;;;5093179;28;20041;-73
2022/01/08 09:52:12;;;;;;;4.13;2.33;;;21.80;34.90;;;;;;5097735;28;20040;-72
2022/01/08 09:54:43;;;;;;;5.60;2.67;;;21.90;34.50;;;;;;5097589;28;20039;-72
2022/01/08 09:57:09;;;;;;;3.17;2.70;;;21.80;33.10;;;;;;5098029;28;20081;-73
2022/01/08 09:59:35;;;;;;;3.80;3.35;;;21.80;35.60;;;;;;5096516;28;20024;-73
2022/01/08 10:02:02;;;;;;;5.88;2.83;;;21.80;43.20;;;;;;5097265;28;20040;-73
2022/01/08 10:04:35;;;;;;;3.08;2.50;;;21.80;43.50;;;;;;5097063;28;20044;-73
2022/01/08 10:07:20;;;;;;;5.45;3.67;;;21.70;45.40;;;;;;5080773;28;20045;-74
2022/01/08 10:10:12;;;;;;;6.22;3.20;;;21.70;44.70;;;;;;5095045;28;20193;-74
2022/01/08 10:12:42;;;;;;;7.50;4.53;;;21.50;46.70;;;;;;5075291;28;20036;-75
2022/01/08 10:18:36;;;;;;;8.40;4.18;;;21.40;47.70;;;;;;5095816;28;20075;-75
2022/01/08 10:21:25;;;;;;;5.95;3.40;;;21.10;48.00;;;;;;5091142;28;20051;-75
2022/01/08 10:24:05;;;;;;;5.15;3.15;;;21.10;48.50;;;;;;5096562;28;20036;-74
2022/01/08 10:26:35;;;;;;;2.40;1.60;;;21.00;48.80;;;;;;5096868;28;20040;-74
2022/01/08 10:29:04;;;;;;;3.25;1.38;;;21.20;42.20;;;;;;5097323;28;20075;-73
2022/01/08 10:31:40;;;;;;;3.90;2.58;;;21.50;40.10;;;;;;5097133;28;20043;-73
2022/01/08 10:34:18;;;;;;;3.58;2.33;;;21.60;40.20;;;;;;5096471;28;20039;-74
2022/01/08 10:36:56;;;;;;;6.40;3.95;;;21.90;41.40;;;;;;5097549;28;20032;-72
2022/01/08 10:39:29;;;;;;;10.90;4.72;;;22.00;39.20;;;;;;5097713;28;20055;-72
2022/01/08 10:41:56;;;;;;;;;;;21.90;34.90;;;;;;5090704;28;20075;-74
2022/01/08 10:44:29;;;;;;;5.18;3.60;;;22.10;31.60;;;;;;5094329;28;19950;-73
2022/01/08 10:46:55;;;;;;;6.80;4.22;;;22.10;31.50;;;;;;5097137;28;20048;-73
2022/01/08 10:49:31;;;;;;;6.05;4.25;;;22.00;31.20;;;;;;5096931;28;20089;-73
2022/01/08 10:52:00;;;;;;;5.95;4.60;;;22.30;31.40;;;;;;5096677;28;20055;-75
2022/01/08 10:54:29;;;;;;;7.43;4.20;;;22.30;32.10;;;;;;5077515;28;20028;-77
2022/01/08 10:57:00;;;;;;;6.95;3.88;;;22.40;30.70;;;;;;5079636;28;20118;-75
2022/01/08 10:59:27;;;;;;;7.32;3.65;;;22.40;31.70;;;;;;5096516;28;20040;-75
2022/01/08 11:01:59;;;;;;;7.38;4.10;;;22.30;29.50;;;;;;5096196;28;20041;-79
2022/01/08 11:04:36;;;;;;;8.85;4.88;;;22.40;28.50;;;;;;5079767;28;20037;-76
2022/01/08 11:07:08;;;;;;;7.00;4.28;;;22.40;27.90;;;;;;5097159;28;20060;-79
2022/01/08 11:09:36;;;;;;;5.20;3.00;;;22.30;28.10;;;;;;5089085;28;20100;-75
2022/01/08 11:12:06;;;;;;;2.80;2.33;;;22.30;29.50;;;;;;5097295;28;20099;-76
2022/01/08 11:17:29;;;;;;;6.50;3.25;;;22.60;41.50;;;;;;5077363;28;20090;-78
2022/01/08 11:19:58;;;;;;;5.68;3.92;;;22.80;43.30;;;;;;5077135;28;20056;-76
2022/01/08 11:22:27;;;;;;;7.07;3.60;;;23.00;46.60;;;;;;5086511;28;20092;-74
2022/01/08 11:25:06;;;;;;;4.55;3.92;;;23.00;35.80;;;;;;5096039;28;20048;-74
2022/01/08 11:27:46;;;;;;;4.43;3.38;;;23.00;40.40;;;;;;5090263;28;20060;-77
2022/01/08 11:30:19;;;;;;;6.65;3.60;;;22.90;46.10;;;;;;5094822;28;20056;-76
2022/01/08 11:32:47;;;;;;;7.15;3.25;;;22.80;47.10;;;;;;5094720;28;20120;-77
2022/01/08 11:35:15;;;;;;;6.20;3.25;;;22.50;48.10;;;;;;5104213;28;20060;-76
2022/01/08 11:37:46;;;;;;;7.88;3.42;;;22.30;47.40;;;;;;5096619;28;20147;-77
2022/01/08 11:40:15;;;;;;;8.32;3.83;;;22.20;50.30;;;;;;5096568;28;20044;-77
2022/01/08 11:42:42;;;;;;;11.05;3.22;;;22.10;49.70;;;;;;5096587;28;20048;-76
2022/01/08 11:45:13;;;;;;;4.68;3.40;;;22.00;50.60;;;;;;5078444;28;20044;-75
2022/01/08 11:47:49;;;;;;;4.95;3.25;;;22.00;49.60;;;;;;5096253;28;20070;-76
2022/01/08 11:50:20;;;;;;;3.97;2.97;;;21.80;50.90;;;;;;5095121;28;20036;-77
2022/01/08 11:52:46;;;;;;;8.60;4.32;;;21.80;51.60;;;;;;5096284;28;20044;-76
2022/01/08 11:55:13;;;;;;;5.90;3.22;;;21.70;51.40;;;;;;5096038;28;20066;-77
2022/01/08 11:57:39;;;;;;;9.25;4.07;;;21.70;51.10;;;;;;5096350;28;20060;-77
2022/01/08 12:00:06;;;;;;;5.60;3.33;;;21.60;51.70;;;;;;5095592;28;20433;-78
2022/01/08 12:02:43;;;;;;;6.47;4.00;;;21.60;53.80;;;;;;5092480;28;20044;-76
2022/01/08 12:05:12;;;;;;;5.68;3.35;;;21.40;52.60;;;;;;5089722;28;20028;-78
2022/01/08 12:07:47;;;;;;;6.60;3.80;;;21.50;54.50;;;;;;5076083;28;20084;-74
2022/01/08 12:10:23;;;;;;;6.07;3.30;;;21.50;53.10;;;;;;5079695;28;20043;-77
2022/01/08 12:12:49;;;;;;;6.22;3.08;;;21.50;51.60;;;;;;5094925;28;20045;-76
2022/01/08 12:15:17;;;;;;;2.97;2.67;;;21.40;53.80;;;;;;5094786;28;20025;-76
2022/01/08 12:17:52;;;;;;;5.53;3.28;;;21.30;51.10;;;;;;5096135;28;20096;-77
2022/01/08 12:20:41;;;;;;;5.82;3.35;;;21.30;55.20;;;;;;5077934;28;20036;-77
2022/01/08 12:23:38;;;;;;;8.35;3.35;;;21.50;55.60;;;;;;5095855;28;20048;-76
2022/01/08 12:26:11;;;;;;;7.78;3.28;;;21.60;55.20;;;;;;5074528;28;20052;-75
2022/01/08 12:28:46;;;;;;;5.80;3.08;;;21.80;55.80;;;;;;5095454;28;20045;-75
2022/01/08 12:31:37;;;;;;;5.78;4.07;;;21.90;57.60;;;;;;5094569;28;20056;-75
2022/01/08 12:34:35;;;;;;;7.50;3.72;;;22.00;58.90;;;;;;5110830;28;20768;-76
2022/01/08 12:37:03;;;;;;;5.93;3.33;;;22.00;57.60;;;;;;5094032;28;20048;-75
2022/01/08 12:39:47;;;;;;;6.10;3.33;;;22.10;56.20;;;;;;5094936;28;20052;-77
2022/01/08 12:42:19;;;;;;;6.63;3.72;;;22.10;54.80;;;;;;5095699;28;20040;-75
2022/01/08 12:45:15;;;;;;;7.15;3.55;;;22.20;53.80;;;;;;5086184;28;20040;-77
2022/01/08 12:47:47;;;;;;;5.60;3.30;;;22.20;53.70;;;;;;5075771;28;20041;-75
2022/01/08 12:50:38;;;;;;;7.43;4.07;;;22.10;54.70;;;;;;5059909;28;20062;-74
2022/01/08 12:53:05;;;;;;;5.65;3.33;;;22.10;54.70;;;;;;5077304;28;20061;-75
2022/01/08 12:55:40;;;;;;;5.15;3.42;;;22.10;54.90;;;;;;5094249;28;20092;-75
2022/01/08 12:58:17;;;;;;;11.13;3.85;;;22.00;54.70;;;;;;5094721;28;20044;-76
2022/01/08 13:01:05;;;;;;;6.45;3.67;;;22.00;53.10;;;;;;5090802;28;20044;-75
2022/01/08 13:03:46;;;;;;;7.47;4.18;;;22.10;53.00;;;;;;5094336;28;20033;-76
2022/01/08 13:06:12;;;;;;;5.65;4.07;;;22.00;54.50;;;;;;5093258;28;20063;-75
2022/01/08 13:08:41;;;;;;;6.18;4.20;;;22.00;54.50;;;;;;5093042;28;20036;-76
2022/01/08 13:11:09;;;;;;;9.82;4.38;;;21.90;54.70;;;;;;5095140;28;20029;-76
2022/01/08 13:13:42;;;;;;;9.30;4.22;;;21.80;54.70;;;;;;5094482;28;20063;-75
2022/01/08 13:16:11;;;;;;;5.07;4.28;;;21.90;55.10;;;;;;5094808;28;20036;-75